createdAt,value
2019-01-02T00:12:05.778Z,59.8
2019-01-02T00:27:17.841Z,62.5
2019-01-02T00:42:29.303Z,69.4
2019-01-02T00:57:40.928Z,71.5
2019-01-02T01:12:52.588Z,74.4
2019-01-02T01:28:04.175Z,76.5
2019-01-02T01:43:15.845Z,73.8
2019-01-02T01:58:27.856Z,71.2
2019-01-02T02:13:38.480Z,69.4
2019-01-02T02:28:51.038Z,69
2019-01-02T02:44:03.158Z,69
2019-01-02T02:59:14.992Z,67.8
2019-01-02T03:14:19.775Z,68.1
2019-01-02T03:29:39.939Z,68.7
2019-01-02T03:44:50.192Z,68
2019-01-02T04:00:02.451Z,68.5
2019-01-02T04:15:13.984Z,69.5
2019-01-02T04:30:25.791Z,69.9
2019-01-02T04:45:37.628Z,68.3
2019-01-02T05:00:49.606Z,68
2019-01-02T05:16:01.272Z,66.2
2019-01-02T05:31:08.360Z,65.7
2019-01-02T05:46:25.101Z,63.7
2019-01-02T06:01:36.791Z,63.7
2019-01-02T06:16:48.540Z,63.2
2019-01-02T06:32:00.355Z,64.8
2019-01-02T06:47:11.987Z,77.5
2019-01-02T07:02:23.607Z,83.2
2019-01-02T07:17:34.648Z,74.1
2019-01-02T07:32:46.175Z,70.8
2019-01-02T07:47:55.746Z,71.6
2019-01-02T08:03:09.227Z,68.9
2019-01-02T08:18:20.991Z,63.1
2019-01-02T08:33:32.823Z,61.5
2019-01-02T08:48:37.056Z,58.3
2019-01-02T09:03:55.886Z,56.8
2019-01-02T09:19:07.478Z,58.3
2019-01-02T09:34:19.165Z,57.5
2019-01-02T09:49:30.859Z,55.5
2019-01-02T10:04:42.689Z,55.6
2019-01-02T10:19:54.439Z,54.9
2019-01-02T10:35:06.141Z,56.2
2019-01-02T10:50:17.925Z,55.4
2019-01-02T11:05:25.400Z,54.8
2019-01-02T11:20:41.334Z,53.8
2019-01-02T11:35:53.053Z,76.2
2019-01-02T11:51:04.460Z,91.2
2019-01-02T12:06:14.979Z,83.4
2019-01-02T12:21:25.986Z,77.4
2019-01-02T12:36:38.880Z,71.8
2019-01-02T12:51:48.705Z,72.6
2019-01-02T13:07:02.654Z,72.9
2019-01-02T13:22:10.393Z,74.3
2019-01-02T13:37:22.803Z,72.7
2019-01-02T13:52:34.006Z,74.2
2019-01-02T14:07:44.711Z,77.2
2019-01-02T14:22:50.097Z,78.7
2019-01-02T14:38:06.671Z,79.2
2019-01-02T14:53:18.703Z,79.9
2019-01-02T15:08:28.479Z,79.7
2019-01-02T15:23:39.463Z,78.5
2019-01-02T15:38:50.333Z,75.3
2019-01-02T15:54:01.343Z,72
2019-01-02T16:09:12.253Z,59
2019-01-02T16:24:23.366Z,54
2019-01-02T16:39:33.536Z,54.5
2019-01-02T16:54:45.478Z,55.3
2019-01-02T17:09:56.621Z,53.1
2019-01-02T17:25:07.542Z,55.6
2019-01-02T17:40:12.973Z,58.3
2019-01-02T17:55:29.651Z,61
2019-01-02T18:10:40.684Z,61.8
2019-01-02T18:25:51.533Z,59.8
2019-01-02T18:41:02.612Z,58.2
2019-01-02T18:56:13.444Z,58.9
2019-01-02T19:11:24.377Z,61.4
2019-01-02T19:26:35.160Z,63.5
2019-01-02T19:41:46.000Z,60
2019-01-02T19:56:56.041Z,58.8
2019-01-02T20:12:07.877Z,55.3
2019-01-02T20:27:19.622Z,42
2019-01-02T20:42:30.358Z,40
2019-01-02T20:57:34.889Z,40.2
2019-01-02T21:12:51.688Z,41.1
2019-01-02T21:28:02.625Z,40.7
2019-01-02T21:43:13.170Z,42
2019-01-02T21:58:23.856Z,43.6
2019-01-02T22:13:34.435Z,44.5
2019-01-02T22:28:45.079Z,45.6
2019-01-02T22:43:55.785Z,47.5
2019-01-02T22:59:06.163Z,48.4
2019-01-02T23:14:15.968Z,49
2019-01-02T23:29:27.223Z,50
2019-01-02T23:44:37.823Z,51.2
2019-01-02T23:59:47.886Z,51.9
